createdAt,value
2022-12-13T00:02:05.990Z,21.89
2022-12-13T00:04:35.601Z,22.66
2022-12-13T00:07:05.182Z,22.85
2022-12-13T00:09:34.807Z,23.06
2022-12-13T00:12:04.409Z,22.88
2022-12-13T00:14:34.254Z,22.98
2022-12-13T00:17:03.830Z,23.08
2022-12-13T00:19:33.376Z,23.11
2022-12-13T00:22:03.004Z,23.35
2022-12-13T00:24:32.661Z,23.36
2022-12-13T00:27:02.545Z,23.38
2022-12-13T00:29:32.095Z,23.30
2022-12-13T00:32:01.865Z,23.46
2022-12-13T00:34:32.155Z,23.45
2022-12-13T00:37:01.819Z,23.37
2022-12-13T00:39:31.493Z,23.33
2022-12-13T00:42:01.048Z,23.50
2022-12-13T00:44:30.839Z,23.58
2022-12-13T00:47:00.450Z,23.52
2022-12-13T00:49:30.085Z,23.84
2022-12-13T00:51:59.816Z,23.72
2022-12-13T00:54:29.883Z,23.82
2022-12-13T00:56:59.489Z,23.85
2022-12-13T00:59:29.118Z,23.62
2022-12-13T01:01:59.149Z,23.30
2022-12-13T01:04:28.923Z,23.78
2022-12-13T01:06:58.544Z,23.78
2022-12-13T01:09:31.264Z,23.83
2022-12-13T01:12:06.866Z,23.93
2022-12-13T01:14:41.404Z,23.62
2022-12-13T01:17:11.472Z,23.67
2022-12-13T01:19:41.168Z,23.48
2022-12-13T01:22:12.737Z,23.75
2022-12-13T01:24:42.846Z,23.56
2022-12-13T01:27:12.806Z,23.62
2022-12-13T01:29:42.474Z,23.59
2022-12-13T01:32:12.030Z,23.77
2022-12-13T01:34:41.631Z,23.91
2022-12-13T01:37:11.183Z,23.69
2022-12-13T01:39:40.856Z,23.66
2022-12-13T01:42:16.839Z,23.53
2022-12-13T01:44:58.731Z,23.62
2022-12-13T01:47:37.445Z,23.73
2022-12-13T01:50:12.132Z,23.35
2022-12-13T01:52:44.703Z,23.88
2022-12-13T01:55:17.385Z,23.58
2022-12-13T01:57:52.325Z,23.17
2022-12-13T02:00:22.344Z,23.24
2022-12-13T02:02:52.322Z,23.07
2022-12-13T02:05:36.507Z,23.27
2022-12-13T02:08:07.001Z,23.23
2022-12-13T02:10:36.638Z,23.34
2022-12-13T02:13:07.194Z,23.04
2022-12-13T02:16:01.312Z,23.10
2022-12-13T02:18:42.362Z,22.95
2022-12-13T02:21:38.015Z,23.07
2022-12-13T02:24:26.587Z,23.19
2022-12-13T02:27:01.805Z,23.10
2022-12-13T02:29:43.279Z,23.07
2022-12-13T02:32:15.483Z,22.94
2022-12-13T02:34:49.271Z,22.85
2022-12-13T02:37:31.590Z,23.03
2022-12-13T02:40:13.194Z,23.13
2022-12-13T02:43:03.557Z,22.95
2022-12-13T02:45:43.195Z,23.05
2022-12-13T02:48:15.876Z,23.35
2022-12-13T02:50:46.778Z,23.09
2022-12-13T02:53:18.437Z,23.10
2022-12-13T02:55:48.110Z,23.16
2022-12-13T02:58:25.266Z,22.92
2022-12-13T03:01:27.869Z,23.08
2022-12-13T03:04:14.565Z,23.01
2022-12-13T03:06:46.761Z,23.24
2022-12-13T03:09:28.430Z,23.35
2022-12-13T03:12:22.075Z,23.13
2022-12-13T03:15:19.904Z,22.94
2022-12-13T03:17:56.708Z,22.81
2022-12-13T03:20:29.273Z,22.60
2022-12-13T03:23:00.287Z,22.67
2022-12-13T03:25:33.810Z,22.79
2022-12-13T03:28:03.813Z,22.63
2022-12-13T03:30:35.222Z,22.45
2022-12-13T03:33:04.888Z,22.33
2022-12-13T03:35:44.782Z,22.23
2022-12-13T03:38:21.732Z,22.19
2022-12-13T03:41:06.240Z,22.31
2022-12-13T03:43:36.065Z,22.04
2022-12-13T03:46:05.670Z,22.05
2022-12-13T03:48:35.649Z,22.01
2022-12-13T03:51:05.492Z,22.09
2022-12-13T03:53:35.606Z,21.94
2022-12-13T03:56:07.445Z,21.83
2022-12-13T03:58:38.346Z,21.76
2022-12-13T04:01:13.785Z,21.81
2022-12-13T04:03:45.347Z,21.82
2022-12-13T04:06:21.799Z,21.63
2022-12-13T04:08:53.794Z,21.77
2022-12-13T04:11:42.783Z,21.61
2022-12-13T04:14:22.385Z,21.62
2022-12-13T04:16:53.970Z,21.49
2022-12-13T04:19:24.201Z,21.50
2022-12-13T04:21:55.719Z,21.59
2022-12-13T04:24:30.964Z,21.64
2022-12-13T04:27:02.845Z,21.45
2022-12-13T04:29:34.489Z,21.31
2022-12-13T04:32:26.580Z,21.57
2022-12-13T04:35:00.843Z,21.57
2022-12-13T04:37:32.045Z,21.62
2022-12-13T04:40:01.716Z,21.66
2022-12-13T04:42:31.293Z,21.64
2022-12-13T04:45:00.912Z,21.82
2022-12-13T04:47:30.506Z,21.85
2022-12-13T04:50:00.171Z,21.90
2022-12-13T04:52:30.419Z,22.01
2022-12-13T04:57:29.400Z,22.13
2022-12-13T04:59:58.974Z,21.97
2022-12-13T05:02:29.621Z,22.04
2022-12-13T05:04:59.194Z,21.94
2022-12-13T05:07:29.844Z,22.08
2022-12-13T05:09:59.460Z,22.02
2022-12-13T05:12:29.169Z,22.09
2022-12-13T05:14:59.103Z,22.30
2022-12-13T05:17:28.692Z,22.25
2022-12-13T05:19:58.305Z,22.31
2022-12-13T05:22:28.247Z,22.34
2022-12-13T05:24:57.859Z,22.63
2022-12-13T05:27:27.401Z,22.73
2022-12-13T05:30:03.961Z,22.62
2022-12-13T05:32:43.306Z,22.67
2022-12-13T05:35:23.095Z,22.73
2022-12-13T05:37:54.998Z,22.83
2022-12-13T05:40:30.487Z,23.06
2022-12-13T05:43:01.982Z,23.10
2022-12-13T05:45:33.169Z,22.98
2022-12-13T05:48:03.379Z,23.13
2022-12-13T05:50:33.006Z,23.25
2022-12-13T05:53:02.689Z,23.15
2022-12-13T05:55:32.282Z,23.63
2022-12-13T05:58:02.687Z,23.81
2022-12-13T06:00:33.048Z,23.73
2022-12-13T06:03:03.057Z,23.75
2022-12-13T06:05:33.216Z,23.72
2022-12-13T06:08:03.297Z,23.97
2022-12-13T06:11:09.936Z,23.90
2022-12-13T06:13:45.432Z,24.16
2022-12-13T06:16:22.936Z,24.13
2022-12-13T06:19:03.256Z,24.29
2022-12-13T06:21:44.045Z,24.26
2022-12-13T06:24:21.129Z,24.24
2022-12-13T06:26:52.087Z,24.42
2022-12-13T06:29:25.536Z,24.43
2022-12-13T06:32:01.735Z,24.19
2022-12-13T06:34:35.713Z,24.41
2022-12-13T06:37:08.492Z,24.35
2022-12-13T06:39:38.311Z,24.35
2022-12-13T06:42:09.765Z,24.29
2022-12-13T06:44:39.295Z,24.08
2022-12-13T06:47:11.493Z,23.57
2022-12-13T06:49:45.008Z,23.29
2022-12-13T06:52:15.902Z,23.01
2022-12-13T06:54:46.121Z,22.74
2022-12-13T06:57:16.453Z,22.72
2022-12-13T06:59:46.185Z,22.56
2022-12-13T07:02:24.993Z,22.46
2022-12-13T07:04:56.232Z,22.38
2022-12-13T07:07:27.614Z,22.29
2022-12-13T07:09:57.796Z,22.37
2022-12-13T07:12:27.361Z,22.17
2022-12-13T07:14:57.611Z,22.29
2022-12-13T07:17:32.775Z,22.07
2022-12-13T07:20:09.284Z,22.25
2022-12-13T07:22:46.602Z,22.19
2022-12-13T07:25:28.303Z,22.08
2022-12-13T07:28:01.272Z,22.04
2022-12-13T07:30:42.289Z,22.06
2022-12-13T07:33:12.912Z,22.02
2022-12-13T07:35:55.487Z,22.12
2022-12-13T07:38:25.241Z,22.06
2022-12-13T07:40:58.046Z,22.19
2022-12-13T07:43:28.193Z,22.01
2022-12-13T07:46:01.225Z,22.00
2022-12-13T07:48:32.106Z,21.72
2022-12-13T07:51:07.345Z,22.07
2022-12-13T07:53:37.238Z,22.07
2022-12-13T07:56:09.485Z,22.02
2022-12-13T07:58:39.491Z,21.99
2022-12-13T08:01:11.980Z,22.08
2022-12-13T08:03:41.667Z,22.01
2022-12-13T08:06:13.833Z,22.06
2022-12-13T08:08:43.479Z,21.92
2022-12-13T08:11:16.989Z,22.02
2022-12-13T08:13:45.968Z,21.80
2022-12-13T08:16:27.532Z,21.87
2022-12-13T08:19:03.283Z,22.02
2022-12-13T08:24:30.176Z,22.35
2022-12-13T08:27:04.676Z,22.36
2022-12-13T08:29:36.396Z,22.59
2022-12-13T08:32:14.682Z,22.53
2022-12-13T08:34:44.649Z,22.67
2022-12-13T08:37:14.736Z,22.69
2022-12-13T08:39:44.372Z,22.84
2022-12-13T08:42:19.286Z,22.76
2022-12-13T08:44:51.847Z,22.87
2022-12-13T08:47:26.061Z,22.84
2022-12-13T08:50:02.336Z,22.94
2022-12-13T08:52:39.465Z,22.96
2022-12-13T08:55:12.077Z,22.98
2022-12-13T08:57:42.747Z,22.90
2022-12-13T09:00:17.580Z,22.92
2022-12-13T09:02:47.806Z,22.88
2022-12-13T09:05:33.237Z,22.84
2022-12-13T09:08:23.452Z,23.24
2022-12-13T09:11:10.668Z,23.24
2022-12-13T09:13:50.680Z,22.84
2022-12-13T09:16:25.430Z,22.87
2022-12-13T09:18:56.171Z,23.06
2022-12-13T09:21:31.847Z,23.02
2022-12-13T09:24:02.804Z,23.04
2022-12-13T09:26:37.693Z,23.13
2022-12-13T09:29:11.742Z,23.12
2022-12-13T09:31:41.887Z,22.83
2022-12-13T09:34:12.938Z,23.00
2022-12-13T09:36:43.709Z,22.88
2022-12-13T09:39:13.691Z,22.97
2022-12-13T09:41:45.650Z,23.00
2022-12-13T09:44:31.992Z,22.92
2022-12-13T09:47:13.706Z,22.87
2022-12-13T09:49:51.857Z,22.87
2022-12-13T09:52:25.718Z,22.89
2022-12-13T09:54:58.427Z,22.83
2022-12-13T09:57:34.390Z,22.87
2022-12-13T10:00:12.517Z,22.71
2022-12-13T10:02:53.854Z,22.88
2022-12-13T10:05:40.410Z,22.86
2022-12-13T10:08:24.399Z,22.73
2022-12-13T10:10:54.735Z,22.82
2022-12-13T10:13:50.935Z,22.98
2022-12-13T10:16:36.505Z,22.70
2022-12-13T10:19:55.342Z,22.67
2022-12-13T10:22:25.040Z,22.65
2022-12-13T10:25:01.793Z,22.62
2022-12-13T10:27:35.262Z,22.74
2022-12-13T10:30:29.084Z,22.58
2022-12-13T10:33:00.207Z,22.67
2022-12-13T10:35:31.153Z,22.65
2022-12-13T10:38:31.716Z,22.66
2022-12-13T10:41:02.059Z,22.52
2022-12-13T10:43:31.999Z,22.71
2022-12-13T10:46:05.564Z,22.58
2022-12-13T10:48:38.980Z,22.52
2022-12-13T10:51:11.958Z,22.61
2022-12-13T10:53:48.235Z,22.57
2022-12-13T10:56:23.351Z,22.61
2022-12-13T10:59:17.521Z,22.64
2022-12-13T11:01:47.706Z,22.39
2022-12-13T11:04:33.123Z,22.59
2022-12-13T11:07:23.801Z,22.54
2022-12-13T11:09:53.448Z,22.31
2022-12-13T11:12:26.726Z,22.38
2022-12-13T11:14:56.209Z,22.39
2022-12-13T11:17:29.534Z,22.39
2022-12-13T11:20:03.788Z,22.30
2022-12-13T11:22:36.729Z,22.33
2022-12-13T11:25:21.644Z,22.28
2022-12-13T11:28:26.604Z,22.26
2022-12-13T11:31:01.299Z,22.26
2022-12-13T11:33:48.300Z,22.19
2022-12-13T11:36:34.441Z,22.35
2022-12-13T11:39:03.917Z,22.14
2022-12-13T11:41:50.766Z,22.30
2022-12-13T11:44:32.858Z,22.23
2022-12-13T11:47:03.784Z,22.25
2022-12-13T11:49:47.084Z,22.13
2022-12-13T11:52:31.549Z,22.16
2022-12-13T11:55:27.075Z,22.14
2022-12-13T11:58:03.522Z,22.19
2022-12-13T12:00:41.887Z,22.21
2022-12-13T12:03:23.992Z,22.15
2022-12-13T12:06:03.592Z,22.23
2022-12-13T12:08:44.426Z,22.14
2022-12-13T12:11:20.520Z,22.14
2022-12-13T12:14:15.059Z,22.11
2022-12-13T12:17:02.717Z,22.01
2022-12-13T12:19:40.186Z,22.00
2022-12-13T12:22:51.156Z,22.07
2022-12-13T12:25:30.583Z,22.08
2022-12-13T12:28:33.523Z,22.07
2022-12-13T12:31:03.013Z,22.09
2022-12-13T12:33:47.508Z,21.88
2022-12-13T12:37:03.671Z,21.95
2022-12-13T12:40:07.547Z,21.81
2022-12-13T12:43:14.287Z,21.86
2022-12-13T12:46:13.060Z,21.99
2022-12-13T12:49:06.085Z,21.79
2022-12-13T12:51:57.291Z,21.73
2022-12-13T12:54:51.358Z,21.83
2022-12-13T12:57:28.245Z,21.72
2022-12-13T13:00:20.682Z,21.85
2022-12-13T13:03:18.786Z,21.84
2022-12-13T13:06:14.316Z,21.79
2022-12-13T13:09:06.619Z,21.80
2022-12-13T13:11:44.679Z,21.61
2022-12-13T13:14:32.671Z,21.58
2022-12-13T13:17:22.966Z,21.64
2022-12-13T13:19:55.937Z,21.47
2022-12-13T13:22:44.252Z,21.70
2022-12-13T13:25:43.951Z,21.47
2022-12-13T13:28:24.627Z,21.50
2022-12-13T13:31:05.294Z,21.60
2022-12-13T13:33:40.915Z,21.47
2022-12-13T13:36:11.688Z,21.38
2022-12-13T13:39:01.607Z,21.37
2022-12-13T13:42:02.750Z,21.27
2022-12-13T13:44:54.790Z,21.33
2022-12-13T13:47:24.346Z,21.22
2022-12-13T13:50:15.011Z,21.19
2022-12-13T13:53:13.559Z,21.27
2022-12-13T13:56:16.206Z,21.31
2022-12-13T13:59:22.747Z,21.29
2022-12-13T14:02:48.467Z,21.25
2022-12-13T14:05:31.249Z,21.09
2022-12-13T14:08:20.655Z,21.16
2022-12-13T14:11:27.177Z,21.04
2022-12-13T14:14:24.771Z,21.03
2022-12-13T14:17:35.100Z,21.09
2022-12-13T14:20:30.573Z,20.93
2022-12-13T14:23:38.486Z,20.98
2022-12-13T14:26:39.006Z,20.89
2022-12-13T14:29:17.010Z,20.78
2022-12-13T14:31:49.439Z,20.69
2022-12-13T14:34:30.533Z,20.83
2022-12-13T14:37:05.835Z,20.83
2022-12-13T14:39:36.277Z,20.70
2022-12-13T14:42:50.137Z,20.83
2022-12-13T14:45:36.009Z,20.78
2022-12-13T14:48:29.142Z,20.59
2022-12-13T14:50:59.410Z,20.77
2022-12-13T14:53:42.975Z,20.65
2022-12-13T14:56:27.352Z,20.40
2022-12-13T14:59:04.214Z,20.65
2022-12-13T15:01:42.472Z,20.55
2022-12-13T15:04:39.397Z,20.62
2022-12-13T15:07:15.122Z,20.39
2022-12-13T15:09:47.333Z,20.39
2022-12-13T15:12:24.508Z,20.46
2022-12-13T15:15:06.889Z,20.39
2022-12-13T15:17:39.000Z,20.30
2022-12-13T15:20:35.091Z,20.18
2022-12-13T15:23:29.183Z,20.40
2022-12-13T15:26:28.010Z,20.03
2022-12-13T15:29:09.441Z,20.30
2022-12-13T15:31:41.978Z,19.92
2022-12-13T15:34:36.808Z,20.13
2022-12-13T15:37:29.646Z,20.11
2022-12-13T15:40:15.870Z,20.08
2022-12-13T15:42:48.984Z,20.04
2022-12-13T15:45:36.655Z,19.92
2022-12-13T15:48:07.581Z,20.12
2022-12-13T15:50:47.222Z,20.10
2022-12-13T15:53:30.244Z,19.93
2022-12-13T15:56:02.289Z,19.87
2022-12-13T15:58:38.646Z,19.85
2022-12-13T16:01:08.249Z,19.87
2022-12-13T16:03:48.741Z,19.95
2022-12-13T16:06:24.294Z,19.88
2022-12-13T16:09:00.191Z,19.69
2022-12-13T16:11:34.098Z,19.64
2022-12-13T16:14:33.982Z,19.85
2022-12-13T16:17:26.037Z,19.57
2022-12-13T16:19:57.456Z,19.57
2022-12-13T16:22:27.306Z,19.84
2022-12-13T16:24:58.007Z,19.62
2022-12-13T16:27:27.591Z,19.40
2022-12-13T16:29:57.106Z,19.53
2022-12-13T16:32:26.785Z,19.45
2022-12-13T16:34:56.353Z,19.36
2022-12-13T16:37:28.706Z,19.57
2022-12-13T16:39:58.335Z,19.39
2022-12-13T16:42:28.927Z,19.38
2022-12-13T16:45:32.415Z,19.21
2022-12-13T16:47:50.443Z,19.44
2022-12-13T16:50:22.879Z,19.21
2022-12-13T16:52:52.494Z,19.17
2022-12-13T16:55:22.030Z,18.96
2022-12-13T16:58:01.839Z,19.15
2022-12-13T17:00:32.382Z,19.05
2022-12-13T17:03:02.557Z,19.06
2022-12-13T17:05:32.648Z,19.00
2022-12-13T17:08:02.662Z,19.08
2022-12-13T17:10:32.294Z,19.11
2022-12-13T17:13:01.810Z,18.94
2022-12-13T17:15:31.756Z,18.84
2022-12-13T17:18:01.428Z,18.85
2022-12-13T17:20:31.006Z,18.87
2022-12-13T17:23:00.737Z,18.64
2022-12-13T17:25:30.315Z,18.73
2022-12-13T17:28:00.264Z,18.80
2022-12-13T17:30:34.037Z,18.57
2022-12-13T17:33:04.992Z,18.65
2022-12-13T17:35:34.535Z,18.62
2022-12-13T17:38:04.105Z,18.69
2022-12-13T17:40:33.676Z,18.53
2022-12-13T17:43:03.233Z,18.54
2022-12-13T17:45:32.803Z,18.60
2022-12-13T17:48:02.326Z,18.40
2022-12-13T17:50:32.187Z,18.53
2022-12-13T17:53:01.742Z,18.62
2022-12-13T17:55:35.668Z,18.42
2022-12-13T17:58:05.196Z,18.41
2022-12-13T18:00:34.927Z,18.55
2022-12-13T18:03:04.549Z,18.55
2022-12-13T18:05:35.384Z,18.32
2022-12-13T18:08:04.935Z,18.27
2022-12-13T18:10:34.504Z,18.40
2022-12-13T18:13:04.038Z,18.32
2022-12-13T18:15:36.073Z,18.31
2022-12-13T18:18:12.869Z,18.14
2022-12-13T18:20:42.621Z,18.13
2022-12-13T18:23:12.486Z,17.96
2022-12-13T18:25:42.518Z,18.17
2022-12-13T18:28:12.269Z,18.09
2022-12-13T18:30:41.878Z,18.06
2022-12-13T18:33:13.977Z,18.17
2022-12-13T18:35:43.541Z,18.13
2022-12-13T18:38:13.138Z,18.01
2022-12-13T18:40:42.697Z,17.95
2022-12-13T18:43:12.269Z,17.90
2022-12-13T18:45:41.831Z,18.07
2022-12-13T18:48:11.672Z,18.00
2022-12-13T18:50:47.109Z,17.98
2022-12-13T18:53:18.259Z,17.78
2022-12-13T18:55:47.801Z,17.82
2022-12-13T18:58:17.325Z,17.76
2022-12-13T19:00:47.551Z,17.91
2022-12-13T19:03:17.617Z,17.71
2022-12-13T19:05:47.220Z,17.67
2022-12-13T19:08:16.734Z,17.78
2022-12-13T19:10:50.035Z,17.64
2022-12-13T19:13:19.593Z,17.77
2022-12-13T19:15:49.150Z,17.63
2022-12-13T19:18:18.945Z,17.74
2022-12-13T19:20:50.304Z,17.63
2022-12-13T19:23:20.568Z,17.74
2022-12-13T19:25:50.294Z,17.57
2022-12-13T19:28:20.208Z,17.70
2022-12-13T19:30:50.217Z,17.66
2022-12-13T19:33:19.974Z,17.66
2022-12-13T19:35:49.510Z,17.66
2022-12-13T19:38:19.085Z,17.55
2022-12-13T19:40:48.634Z,17.59
2022-12-13T19:43:18.241Z,17.53
2022-12-13T19:45:48.430Z,17.36
2022-12-13T19:48:18.444Z,17.54
2022-12-13T19:50:48.207Z,17.37
2022-12-13T19:53:18.861Z,17.43
2022-12-13T19:55:48.610Z,17.47
2022-12-13T19:58:18.322Z,17.62
2022-12-13T20:00:48.070Z,17.35
2022-12-13T20:03:17.950Z,17.36
2022-12-13T20:05:58.075Z,17.48
2022-12-13T20:08:27.958Z,17.26
2022-12-13T20:11:03.910Z,17.26
2022-12-13T20:13:34.543Z,17.27
2022-12-13T20:16:05.973Z,17.13
2022-12-13T20:18:36.468Z,17.20
2022-12-13T20:21:13.273Z,17.09
2022-12-13T20:26:35.531Z,17.23
2022-12-13T20:27:23.342Z,17.17
2022-12-13T20:29:07.000Z,17.04
2022-12-13T20:31:39.581Z,17.03
2022-12-13T20:34:11.735Z,16.70
2022-12-13T20:36:41.394Z,16.39
2022-12-13T20:39:14.043Z,16.54
2022-12-13T20:41:44.057Z,16.34
2022-12-13T20:44:15.052Z,16.25
2022-12-13T20:46:44.778Z,16.12
2022-12-13T20:49:14.307Z,15.96
2022-12-13T20:51:44.337Z,16.05
2022-12-13T20:54:13.974Z,15.69
2022-12-13T20:56:43.615Z,15.59
2022-12-13T20:59:14.924Z,15.55
2022-12-13T21:01:48.984Z,15.32
2022-12-13T21:04:19.029Z,15.07
2022-12-13T21:06:48.607Z,15.23
2022-12-13T21:09:18.188Z,15.00
2022-12-13T21:11:50.295Z,15.02
2022-12-13T21:14:22.812Z,15.26
2022-12-13T21:16:55.327Z,14.97
2022-12-13T21:19:39.017Z,15.08
2022-12-13T21:22:09.890Z,15.10
2022-12-13T21:24:39.416Z,15.11
2022-12-13T21:27:09.358Z,14.88
2022-12-13T21:29:38.923Z,14.83
2022-12-13T21:32:08.661Z,14.82
2022-12-13T21:34:38.214Z,14.78
2022-12-13T21:37:07.948Z,14.82
2022-12-13T21:39:37.556Z,14.48
2022-12-13T21:42:07.191Z,14.34
2022-12-13T21:44:37.162Z,14.52
2022-12-13T21:47:13.985Z,14.25
2022-12-13T21:49:48.406Z,11.36
2022-12-13T21:52:18.742Z,13.16
2022-12-13T21:54:48.428Z,14.54
2022-12-13T21:57:35.950Z,14.96
2022-12-13T22:00:06.289Z,15.45
2022-12-13T22:02:35.879Z,15.40
2022-12-13T22:05:05.544Z,15.57
2022-12-13T22:07:35.691Z,15.10
2022-12-13T22:10:05.530Z,15.21
2022-12-13T22:12:38.104Z,15.32
2022-12-13T22:15:10.564Z,15.31
2022-12-13T22:17:40.931Z,15.33
2022-12-13T22:20:16.817Z,15.19
2022-12-13T22:22:46.873Z,15.15
2022-12-13T22:25:16.801Z,14.66
2022-12-13T22:27:46.303Z,14.70
2022-12-13T22:30:15.957Z,14.47
2022-12-13T22:32:45.487Z,14.44
2022-12-13T22:35:16.112Z,14.65
2022-12-13T22:37:45.734Z,14.69
2022-12-13T22:40:18.493Z,14.31
2022-12-13T22:42:48.496Z,14.45
2022-12-13T22:45:18.173Z,14.12
2022-12-13T22:47:47.813Z,14.35
2022-12-13T22:50:18.141Z,13.81
2022-12-13T22:52:47.665Z,13.88
2022-12-13T22:55:18.110Z,14.13
2022-12-13T22:57:48.508Z,14.04
2022-12-13T23:00:18.700Z,14.14
2022-12-13T23:02:48.381Z,14.07
2022-12-13T23:05:18.179Z,14.05
2022-12-13T23:07:48.655Z,14.36
2022-12-13T23:10:36.662Z,14.25
2022-12-13T23:13:06.329Z,14.22
2022-12-13T23:15:42.322Z,14.08
2022-12-13T23:18:14.356Z,13.95
2022-12-13T23:20:43.951Z,14.10
2022-12-13T23:23:18.099Z,14.31
2022-12-13T23:25:48.918Z,14.16
2022-12-13T23:28:18.899Z,14.35
2022-12-13T23:30:48.508Z,14.24
2022-12-13T23:33:18.159Z,14.28
2022-12-13T23:35:48.113Z,14.07
2022-12-13T23:38:18.593Z,14.12
2022-12-13T23:40:48.671Z,13.65
2022-12-13T23:43:20.138Z,13.73
2022-12-13T23:45:50.529Z,13.56
2022-12-13T23:48:26.698Z,13.69
2022-12-13T23:50:59.590Z,13.45
2022-12-13T23:53:33.219Z,13.36
2022-12-13T23:56:12.950Z,13.37
2022-12-13T23:58:50.848Z,13.17
